McIntosh, New Mexico
Current Conditions -  °F | °C
As of 5:15 PM on Monday 20 Oct 2014 (Local Time) from K0E0 Reporting Station
Moderate Rain Moderate Rain  
Wind Chill: 56°   Ceiling: 5000
Heat Index: 56°   Visibility: 7mi
Dew Point: 50°   Wind: 7mph
Humidity: 79%   Direction: 280°W
Pressure: 30.19"   Gusts: NA
Location:  34.86°N, 106.05°W
Report Text: K0E0 202315Z AUTO 28006KT 7SM RA BKN050 OVC065 13/10 A3019 RMK AO2 LTG DSNT SE P0004 T01340098
Loading
Personal Weather Stations






























Interactive Weather Map
Tropical Storm Tracking
New forecast layout! Learn more

10-Day Weather Forecast

Advertisements
Track Severe Weather on mobile